sensor_id;sensor_type;location;lat;lon;timestamp;pressure;altitude;pressure_sealevel;temperature
71564;BMP180;59391;52.504;13.438;2022-09-21T00:01:16;101987.00;;;14.50
71564;BMP180;59391;52.504;13.438;2022-09-21T00:03:43;102003.00;;;14.50
71564;BMP180;59391;52.504;13.438;2022-09-21T00:06:18;101981.00;;;14.50
71564;BMP180;59391;52.504;13.438;2022-09-21T00:08:44;101996.00;;;14.50
71564;BMP180;59391;52.504;13.438;2022-09-21T00:11:19;102004.00;;;14.50
71564;BMP180;59391;52.504;13.438;2022-09-21T00:13:46;101979.00;;;14.50
71564;BMP180;59391;52.504;13.438;2022-09-21T00:16:14;101998.00;;;14.50
71564;BMP180;59391;52.504;13.438;2022-09-21T00:18:40;102010.00;;;14.50
71564;BMP180;59391;52.504;13.438;2022-09-21T00:21:12;102005.00;;;14.40
71564;BMP180;59391;52.504;13.438;2022-09-21T00:23:38;102012.00;;;14.40
71564;BMP180;59391;52.504;13.438;2022-09-21T00:26:19;101994.00;;;14.40
71564;BMP180;59391;52.504;13.438;2022-09-21T00:28:45;102004.00;;;14.40
71564;BMP180;59391;52.504;13.438;2022-09-21T00:31:14;102003.00;;;14.40
71564;BMP180;59391;52.504;13.438;2022-09-21T00:33:44;101977.00;;;14.40
71564;BMP180;59391;52.504;13.438;2022-09-21T00:36:16;102011.00;;;14.40
71564;BMP180;59391;52.504;13.438;2022-09-21T00:38:42;102004.00;;;14.40
71564;BMP180;59391;52.504;13.438;2022-09-21T00:41:09;102014.00;;;14.40
71564;BMP180;59391;52.504;13.438;2022-09-21T00:43:41;102014.00;;;14.40
71564;BMP180;59391;52.504;13.438;2022-09-21T00:46:28;102020.00;;;14.40
71564;BMP180;59391;52.504;13.438;2022-09-21T00:48:56;102007.00;;;14.40
71564;BMP180;59391;52.504;13.438;2022-09-21T00:51:22;102018.00;;;14.40
71564;BMP180;59391;52.504;13.438;2022-09-21T00:53:59;102010.00;;;14.40
71564;BMP180;59391;52.504;13.438;2022-09-21T00:56:27;102015.00;;;14.40
71564;BMP180;59391;52.504;13.438;2022-09-21T00:58:54;102011.00;;;14.40
71564;BMP180;59391;52.504;13.438;2022-09-21T01:01:20;102008.00;;;14.40
71564;BMP180;59391;52.504;13.438;2022-09-21T01:03:48;102019.00;;;14.40
71564;BMP180;59391;52.504;13.438;2022-09-21T01:06:18;102001.00;;;14.40
71564;BMP180;59391;52.504;13.438;2022-09-21T01:08:51;102017.00;;;14.40
71564;BMP180;59391;52.504;13.438;2022-09-21T01:11:50;102016.00;;;14.40
71564;BMP180;59391;52.504;13.438;2022-09-21T01:21:05;102030.00;;;14.30
71564;BMP180;59391;52.504;13.438;2022-09-21T01:26:42;102031.00;;;14.30
71564;BMP180;59391;52.504;13.438;2022-09-21T01:29:51;102037.00;;;14.30
71564;BMP180;59391;52.504;13.438;2022-09-21T01:32:35;102046.00;;;14.20
71564;BMP180;59391;52.504;13.438;2022-09-21T01:35:16;102026.00;;;14.20
71564;BMP180;59391;52.504;13.438;2022-09-21T01:38:15;102027.00;;;14.30
71564;BMP180;59391;52.504;13.438;2022-09-21T01:40:54;102023.00;;;14.20
71564;BMP180;59391;52.504;13.438;2022-09-21T01:43:28;102014.00;;;14.20
71564;BMP180;59391;52.504;13.438;2022-09-21T01:46:01;102033.00;;;14.20
71564;BMP180;59391;52.504;13.438;2022-09-21T01:48:37;102021.00;;;14.20
71564;BMP180;59391;52.504;13.438;2022-09-21T01:51:10;102021.00;;;14.20
71564;BMP180;59391;52.504;13.438;2022-09-21T01:53:48;102040.00;;;14.20
71564;BMP180;59391;52.504;13.438;2022-09-21T01:56:42;102050.00;;;14.20
71564;BMP180;59391;52.504;13.438;2022-09-21T01:59:27;102044.00;;;14.10
71564;BMP180;59391;52.504;13.438;2022-09-21T02:02:00;102005.00;;;14.10
71564;BMP180;59391;52.504;13.438;2022-09-21T02:04:27;102044.00;;;14.10
71564;BMP180;59391;52.504;13.438;2022-09-21T02:06:56;102011.00;;;14.10
71564;BMP180;59391;52.504;13.438;2022-09-21T02:09:27;102032.00;;;14.10
71564;BMP180;59391;52.504;13.438;2022-09-21T02:11:52;102039.00;;;14.10
71564;BMP180;59391;52.504;13.438;2022-09-21T02:14:26;102029.00;;;14.10
71564;BMP180;59391;52.504;13.438;2022-09-21T02:17:50;102035.00;;;14.10
71564;BMP180;59391;52.504;13.438;2022-09-21T02:20:21;102036.00;;;14.10
71564;BMP180;59391;52.504;13.438;2022-09-21T02:23:05;102040.00;;;14.10
71564;BMP180;59391;52.504;13.438;2022-09-21T02:26:02;102036.00;;;14.10
71564;BMP180;59391;52.504;13.438;2022-09-21T02:29:09;102001.00;;;14.00
71564;BMP180;59391;52.504;13.438;2022-09-21T02:31:52;102033.00;;;14.00
71564;BMP180;59391;52.504;13.438;2022-09-21T02:34:33;102033.00;;;14.00
71564;BMP180;59391;52.504;13.438;2022-09-21T02:37:27;102039.00;;;14.00
71564;BMP180;59391;52.504;13.438;2022-09-21T02:40:14;102029.00;;;14.00
71564;BMP180;59391;52.504;13.438;2022-09-21T02:42:45;102039.00;;;14.00
71564;BMP180;59391;52.504;13.438;2022-09-21T02:45:18;102034.00;;;13.90
71564;BMP180;59391;52.504;13.438;2022-09-21T02:47:52;102045.00;;;13.90
71564;BMP180;59391;52.504;13.438;2022-09-21T02:50:30;102042.00;;;13.90
71564;BMP180;59391;52.504;13.438;2022-09-21T02:53:00;102041.00;;;13.90
71564;BMP180;59391;52.504;13.438;2022-09-21T02:55:31;102029.00;;;13.90
71564;BMP180;59391;52.504;13.438;2022-09-21T02:58:01;102044.00;;;13.90
71564;BMP180;59391;52.504;13.438;2022-09-21T03:00:28;102037.00;;;13.90
71564;BMP180;59391;52.504;13.438;2022-09-21T03:02:53;102051.00;;;13.80
71564;BMP180;59391;52.504;13.438;2022-09-21T03:05:19;102043.00;;;13.90
71564;BMP180;59391;52.504;13.438;2022-09-21T03:07:45;102048.00;;;13.80
71564;BMP180;59391;52.504;13.438;2022-09-21T03:10:10;102052.00;;;13.80
71564;BMP180;59391;52.504;13.438;2022-09-21T03:12:36;102050.00;;;13.80
71564;BMP180;59391;52.504;13.438;2022-09-21T03:15:03;102066.00;;;13.80
71564;BMP180;59391;52.504;13.438;2022-09-21T03:17:29;102042.00;;;13.80
71564;BMP180;59391;52.504;13.438;2022-09-21T03:19:55;102062.00;;;13.80
71564;BMP180;59391;52.504;13.438;2022-09-21T03:22:22;102069.00;;;13.80
71564;BMP180;59391;52.504;13.438;2022-09-21T03:24:48;102070.00;;;13.80
71564;BMP180;59391;52.504;13.438;2022-09-21T03:27:18;102066.00;;;13.80
71564;BMP180;59391;52.504;13.438;2022-09-21T03:29:44;102062.00;;;13.80
71564;BMP180;59391;52.504;13.438;2022-09-21T03:32:11;102046.00;;;13.80
71564;BMP180;59391;52.504;13.438;2022-09-21T03:34:36;102071.00;;;13.70
71564;BMP180;59391;52.504;13.438;2022-09-21T03:37:07;102067.00;;;13.70
71564;BMP180;59391;52.504;13.438;2022-09-21T03:39:33;102067.00;;;13.70
71564;BMP180;59391;52.504;13.438;2022-09-21T03:41:59;102075.00;;;13.70
71564;BMP180;59391;52.504;13.438;2022-09-21T03:44:26;102058.00;;;13.70
71564;BMP180;59391;52.504;13.438;2022-09-21T03:46:52;102060.00;;;13.70
71564;BMP180;59391;52.504;13.438;2022-09-21T03:49:18;102068.00;;;13.70
71564;BMP180;59391;52.504;13.438;2022-09-21T03:54:10;102036.00;;;13.70
71564;BMP180;59391;52.504;13.438;2022-09-21T03:56:36;102040.00;;;13.70
71564;BMP180;59391;52.504;13.438;2022-09-21T03:59:03;102075.00;;;13.60
71564;BMP180;59391;52.504;13.438;2022-09-21T04:01:28;102086.00;;;13.70
71564;BMP180;59391;52.504;13.438;2022-09-21T04:03:54;102069.00;;;13.70
71564;BMP180;59391;52.504;13.438;2022-09-21T04:06:20;102082.00;;;13.70
71564;BMP180;59391;52.504;13.438;2022-09-21T04:08:46;102078.00;;;13.60
71564;BMP180;59391;52.504;13.438;2022-09-21T04:11:16;102075.00;;;13.60
71564;BMP180;59391;52.504;13.438;2022-09-21T04:13:42;102080.00;;;13.60
71564;BMP180;59391;52.504;13.438;2022-09-21T04:16:10;102083.00;;;13.60
71564;BMP180;59391;52.504;13.438;2022-09-21T04:18:36;102078.00;;;13.60
71564;BMP180;59391;52.504;13.438;2022-09-21T04:21:04;102091.00;;;13.60
71564;BMP180;59391;52.504;13.438;2022-09-21T04:23:30;102065.00;;;13.60
71564;BMP180;59391;52.504;13.438;2022-09-21T04:25:56;102093.00;;;13.60
71564;BMP180;59391;52.504;13.438;2022-09-21T04:28:22;102090.00;;;13.60
71564;BMP180;59391;52.504;13.438;2022-09-21T04:30:52;102061.00;;;13.60
71564;BMP180;59391;52.504;13.438;2022-09-21T04:33:20;102087.00;;;13.60
71564;BMP180;59391;52.504;13.438;2022-09-21T04:35:54;102051.00;;;13.60
71564;BMP180;59391;52.504;13.438;2022-09-21T04:38:20;102077.00;;;13.60
71564;BMP180;59391;52.504;13.438;2022-09-21T04:40:54;102066.00;;;13.60
71564;BMP180;59391;52.504;13.438;2022-09-21T04:43:20;102069.00;;;13.60
71564;BMP180;59391;52.504;13.438;2022-09-21T04:45:47;102078.00;;;13.60
71564;BMP180;59391;52.504;13.438;2022-09-21T04:48:12;102071.00;;;13.60
71564;BMP180;59391;52.504;13.438;2022-09-21T04:50:38;102084.00;;;13.50
71564;BMP180;59391;52.504;13.438;2022-09-21T04:53:04;102069.00;;;13.50
71564;BMP180;59391;52.504;13.438;2022-09-21T04:55:30;102080.00;;;13.50
71564;BMP180;59391;52.504;13.438;2022-09-21T04:57:56;102089.00;;;13.50
71564;BMP180;59391;52.504;13.438;2022-09-21T05:00:21;102093.00;;;13.50
71564;BMP180;59391;52.504;13.438;2022-09-21T05:02:47;102060.00;;;13.50
71564;BMP180;59391;52.504;13.438;2022-09-21T05:05:15;102096.00;;;13.50
71564;BMP180;59391;52.504;13.438;2022-09-21T05:07:41;102095.00;;;13.50
71564;BMP180;59391;52.504;13.438;2022-09-21T05:10:09;102099.00;;;13.50
71564;BMP180;59391;52.504;13.438;2022-09-21T05:12:35;102107.00;;;13.50
71564;BMP180;59391;52.504;13.438;2022-09-21T05:15:01;102109.00;;;13.50
71564;BMP180;59391;52.504;13.438;2022-09-21T05:17:27;102107.00;;;13.50
71564;BMP180;59391;52.504;13.438;2022-09-21T05:19:53;102092.00;;;13.50
71564;BMP180;59391;52.504;13.438;2022-09-21T05:22:19;102112.00;;;13.50
71564;BMP180;59391;52.504;13.438;2022-09-21T05:24:45;102106.00;;;13.40
71564;BMP180;59391;52.504;13.438;2022-09-21T05:27:11;102110.00;;;13.50
71564;BMP180;59391;52.504;13.438;2022-09-21T05:29:38;102126.00;;;13.50
71564;BMP180;59391;52.504;13.438;2022-09-21T05:35:04;102116.00;;;13.40
71564;BMP180;59391;52.504;13.438;2022-09-21T05:38:02;102131.00;;;13.50
71564;BMP180;59391;52.504;13.438;2022-09-21T05:40:31;102129.00;;;13.50
71564;BMP180;59391;52.504;13.438;2022-09-21T05:42:57;102116.00;;;13.50
71564;BMP180;59391;52.504;13.438;2022-09-21T05:45:23;102133.00;;;13.50
71564;BMP180;59391;52.504;13.438;2022-09-21T05:48:02;102145.00;;;13.50
71564;BMP180;59391;52.504;13.438;2022-09-21T05:51:00;102138.00;;;13.50
71564;BMP180;59391;52.504;13.438;2022-09-21T05:53:58;102142.00;;;13.60
71564;BMP180;59391;52.504;13.438;2022-09-21T05:59:53;102125.00;;;13.60
71564;BMP180;59391;52.504;13.438;2022-09-21T06:02:56;102140.00;;;13.70
71564;BMP180;59391;52.504;13.438;2022-09-21T06:05:28;102117.00;;;13.80
71564;BMP180;59391;52.504;13.438;2022-09-21T06:07:54;102107.00;;;13.90
71564;BMP180;59391;52.504;13.438;2022-09-21T06:10:20;102122.00;;;13.90
71564;BMP180;59391;52.504;13.438;2022-09-21T06:12:45;102108.00;;;14.00
71564;BMP180;59391;52.504;13.438;2022-09-21T06:15:14;102130.00;;;14.00
71564;BMP180;59391;52.504;13.438;2022-09-21T06:17:40;102122.00;;;14.10
71564;BMP180;59391;52.504;13.438;2022-09-21T06:20:07;102109.00;;;14.20
71564;BMP180;59391;52.504;13.438;2022-09-21T06:22:34;102133.00;;;14.30
71564;BMP180;59391;52.504;13.438;2022-09-21T06:25:00;102146.00;;;14.40
71564;BMP180;59391;52.504;13.438;2022-09-21T06:27:27;102143.00;;;14.50
71564;BMP180;59391;52.504;13.438;2022-09-21T06:29:53;102138.00;;;14.50
71564;BMP180;59391;52.504;13.438;2022-09-21T06:32:19;102122.00;;;14.60
71564;BMP180;59391;52.504;13.438;2022-09-21T06:34:44;102157.00;;;14.70
71564;BMP180;59391;52.504;13.438;2022-09-21T06:37:10;102137.00;;;14.80
71564;BMP180;59391;52.504;13.438;2022-09-21T06:39:36;102145.00;;;14.90
71564;BMP180;59391;52.504;13.438;2022-09-21T06:42:01;102152.00;;;14.90
71564;BMP180;59391;52.504;13.438;2022-09-21T06:44:27;102160.00;;;15.00
71564;BMP180;59391;52.504;13.438;2022-09-21T06:46:55;102168.00;;;15.10
71564;BMP180;59391;52.504;13.438;2022-09-21T06:49:20;102158.00;;;15.20
71564;BMP180;59391;52.504;13.438;2022-09-21T06:51:47;102167.00;;;15.20
71564;BMP180;59391;52.504;13.438;2022-09-21T06:54:13;102160.00;;;15.20
71564;BMP180;59391;52.504;13.438;2022-09-21T06:56:39;102168.00;;;15.30
71564;BMP180;59391;52.504;13.438;2022-09-21T06:59:06;102165.00;;;15.30
71564;BMP180;59391;52.504;13.438;2022-09-21T07:01:32;102152.00;;;15.40
71564;BMP180;59391;52.504;13.438;2022-09-21T07:03:58;102162.00;;;15.40
71564;BMP180;59391;52.504;13.438;2022-09-21T07:06:24;102160.00;;;15.50
71564;BMP180;59391;52.504;13.438;2022-09-21T07:08:52;102168.00;;;15.50
71564;BMP180;59391;52.504;13.438;2022-09-21T07:11:18;102157.00;;;15.60
71564;BMP180;59391;52.504;13.438;2022-09-21T07:13:45;102163.00;;;15.60
71564;BMP180;59391;52.504;13.438;2022-09-21T07:16:11;102175.00;;;15.60
71564;BMP180;59391;52.504;13.438;2022-09-21T07:18:39;102167.00;;;15.70
71564;BMP180;59391;52.504;13.438;2022-09-21T07:21:07;102174.00;;;15.80
71564;BMP180;59391;52.504;13.438;2022-09-21T07:23:34;102185.00;;;15.80
71564;BMP180;59391;52.504;13.438;2022-09-21T07:26:06;102180.00;;;15.90
71564;BMP180;59391;52.504;13.438;2022-09-21T07:28:33;102179.00;;;15.90
71564;BMP180;59391;52.504;13.438;2022-09-21T07:31:12;102186.00;;;16.00
71564;BMP180;59391;52.504;13.438;2022-09-21T07:33:38;102179.00;;;16.10
71564;BMP180;59391;52.504;13.438;2022-09-21T07:36:05;102178.00;;;16.10
71564;BMP180;59391;52.504;13.438;2022-09-21T07:38:40;102187.00;;;16.20
71564;BMP180;59391;52.504;13.438;2022-09-21T07:41:12;102165.00;;;16.30
71564;BMP180;59391;52.504;13.438;2022-09-21T07:43:38;102178.00;;;16.40
71564;BMP180;59391;52.504;13.438;2022-09-21T07:46:06;102167.00;;;16.50
71564;BMP180;59391;52.504;13.438;2022-09-21T07:48:32;102160.00;;;16.60
71564;BMP180;59391;52.504;13.438;2022-09-21T07:51:13;102182.00;;;16.70
71564;BMP180;59391;52.504;13.438;2022-09-21T07:53:42;102186.00;;;16.90
71564;BMP180;59391;52.504;13.438;2022-09-21T07:56:15;102180.00;;;17.00
71564;BMP180;59391;52.504;13.438;2022-09-21T07:58:42;102181.00;;;17.10
71564;BMP180;59391;52.504;13.438;2022-09-21T08:01:27;102191.00;;;17.30
71564;BMP180;59391;52.504;13.438;2022-09-21T08:03:56;102188.00;;;17.30
71564;BMP180;59391;52.504;13.438;2022-09-21T08:06:25;102177.00;;;17.50
71564;BMP180;59391;52.504;13.438;2022-09-21T08:08:52;102192.00;;;17.60
71564;BMP180;59391;52.504;13.438;2022-09-21T08:11:20;102192.00;;;17.60
71564;BMP180;59391;52.504;13.438;2022-09-21T08:13:57;102192.00;;;17.70
71564;BMP180;59391;52.504;13.438;2022-09-21T08:16:24;102192.00;;;17.80
71564;BMP180;59391;52.504;13.438;2022-09-21T08:18:51;102185.00;;;17.90
71564;BMP180;59391;52.504;13.438;2022-09-21T08:21:17;102190.00;;;18.00
71564;BMP180;59391;52.504;13.438;2022-09-21T08:23:45;102184.00;;;18.10
71564;BMP180;59391;52.504;13.438;2022-09-21T08:26:14;102197.00;;;18.10
71564;BMP180;59391;52.504;13.438;2022-09-21T08:28:50;102183.00;;;18.20
71564;BMP180;59391;52.504;13.438;2022-09-21T08:31:19;102198.00;;;18.20
71564;BMP180;59391;52.504;13.438;2022-09-21T08:33:46;102195.00;;;18.20
71564;BMP180;59391;52.504;13.438;2022-09-21T08:36:12;102193.00;;;18.20
71564;BMP180;59391;52.504;13.438;2022-09-21T08:38:38;102196.00;;;18.30
71564;BMP180;59391;52.504;13.438;2022-09-21T08:43:54;102210.00;;;18.40
71564;BMP180;59391;52.504;13.438;2022-09-21T08:46:27;102196.00;;;18.40
71564;BMP180;59391;52.504;13.438;2022-09-21T08:49:04;102206.00;;;18.50
71564;BMP180;59391;52.504;13.438;2022-09-21T08:51:36;102187.00;;;18.50
71564;BMP180;59391;52.504;13.438;2022-09-21T08:54:33;102200.00;;;18.60
71564;BMP180;59391;52.504;13.438;2022-09-21T08:57:30;102186.00;;;18.80
71564;BMP180;59391;52.504;13.438;2022-09-21T09:00:15;102185.00;;;19.00
71564;BMP180;59391;52.504;13.438;2022-09-21T09:03:28;102162.00;;;19.10
71564;BMP180;59391;52.504;13.438;2022-09-21T09:06:07;102214.00;;;19.20
71564;BMP180;59391;52.504;13.438;2022-09-21T09:08:58;102209.00;;;19.40
71564;BMP180;59391;52.504;13.438;2022-09-21T09:11:50;102210.00;;;19.60
71564;BMP180;59391;52.504;13.438;2022-09-21T09:15:01;102213.00;;;19.90
71564;BMP180;59391;52.504;13.438;2022-09-21T09:17:51;102214.00;;;20.10
71564;BMP180;59391;52.504;13.438;2022-09-21T09:25:47;102221.00;;;20.70
71564;BMP180;59391;52.504;13.438;2022-09-21T09:31:26;102212.00;;;21.60
71564;BMP180;59391;52.504;13.438;2022-09-21T09:34:15;102213.00;;;22.10
71564;BMP180;59391;52.504;13.438;2022-09-21T09:36:52;102201.00;;;22.70
71564;BMP180;59391;52.504;13.438;2022-09-21T09:39:19;102190.00;;;23.00
71564;BMP180;59391;52.504;13.438;2022-09-21T09:42:01;102158.00;;;23.10
71564;BMP180;59391;52.504;13.438;2022-09-21T09:45:02;102218.00;;;23.50
71564;BMP180;59391;52.504;13.438;2022-09-21T09:50:33;102216.00;;;24.60
71564;BMP180;59391;52.504;13.438;2022-09-21T09:53:13;102215.00;;;25.10
71564;BMP180;59391;52.504;13.438;2022-09-21T09:55:44;102213.00;;;25.60
71564;BMP180;59391;52.504;13.438;2022-09-21T09:58:46;102229.00;;;26.10
71564;BMP180;59391;52.504;13.438;2022-09-21T10:01:41;102208.00;;;26.50
71564;BMP180;59391;52.504;13.438;2022-09-21T10:04:15;102223.00;;;26.90
71564;BMP180;59391;52.504;13.438;2022-09-21T10:06:43;102212.00;;;27.20
71564;BMP180;59391;52.504;13.438;2022-09-21T10:09:28;102216.00;;;27.50
71564;BMP180;59391;52.504;13.438;2022-09-21T10:12:03;102214.00;;;27.90
71564;BMP180;59391;52.504;13.438;2022-09-21T10:14:53;102220.00;;;28.20
71564;BMP180;59391;52.504;13.438;2022-09-21T10:17:23;102214.00;;;28.60
71564;BMP180;59391;52.504;13.438;2022-09-21T10:20:03;102196.00;;;29.00
71564;BMP180;59391;52.504;13.438;2022-09-21T10:22:30;102223.00;;;29.30
71564;BMP180;59391;52.504;13.438;2022-09-21T10:24:59;102213.00;;;29.60
71564;BMP180;59391;52.504;13.438;2022-09-21T10:27:35;102215.00;;;29.80
71564;BMP180;59391;52.504;13.438;2022-09-21T10:30:02;102209.00;;;30.10
71564;BMP180;59391;52.504;13.438;2022-09-21T10:32:28;102209.00;;;30.30
71564;BMP180;59391;52.504;13.438;2022-09-21T10:37:40;102218.00;;;31.10
71564;BMP180;59391;52.504;13.438;2022-09-21T10:42:47;102220.00;;;31.70
71564;BMP180;59391;52.504;13.438;2022-09-21T10:45:20;102207.00;;;32.10
71564;BMP180;59391;52.504;13.438;2022-09-21T10:47:50;102206.00;;;32.40
71564;BMP180;59391;52.504;13.438;2022-09-21T10:50:38;102195.00;;;32.90
71564;BMP180;59391;52.504;13.438;2022-09-21T10:53:28;102208.00;;;33.20
71564;BMP180;59391;52.504;13.438;2022-09-21T10:56:04;102164.00;;;33.40
71564;BMP180;59391;52.504;13.438;2022-09-21T10:58:31;102166.00;;;33.50
71564;BMP180;59391;52.504;13.438;2022-09-21T11:01:20;102203.00;;;33.50
71564;BMP180;59391;52.504;13.438;2022-09-21T11:03:52;102189.00;;;33.00
71564;BMP180;59391;52.504;13.438;2022-09-21T11:06:33;102188.00;;;32.60
71564;BMP180;59391;52.504;13.438;2022-09-21T11:09:24;102177.00;;;32.70
71564;BMP180;59391;52.504;13.438;2022-09-21T11:17:38;102190.00;;;32.20
71564;BMP180;59391;52.504;13.438;2022-09-21T11:20:29;102194.00;;;31.30
71564;BMP180;59391;52.504;13.438;2022-09-21T11:23:46;102196.00;;;30.40
71564;BMP180;59391;52.504;13.438;2022-09-21T11:26:39;102191.00;;;29.40
71564;BMP180;59391;52.504;13.438;2022-09-21T11:32:52;102176.00;;;30.40
71564;BMP180;59391;52.504;13.438;2022-09-21T11:36:06;102192.00;;;31.50
71564;BMP180;59391;52.504;13.438;2022-09-21T11:39:02;102196.00;;;31.70
71564;BMP180;59391;52.504;13.438;2022-09-21T11:42:06;102192.00;;;30.90
71564;BMP180;59391;52.504;13.438;2022-09-21T11:44:56;102175.00;;;30.10
71564;BMP180;59391;52.504;13.438;2022-09-21T11:51:14;102196.00;;;28.90
71564;BMP180;59391;52.504;13.438;2022-09-21T11:54:26;102185.00;;;28.90
71564;BMP180;59391;52.504;13.438;2022-09-21T11:57:19;102169.00;;;28.50
71564;BMP180;59391;52.504;13.438;2022-09-21T12:00:15;102180.00;;;27.90
71564;BMP180;59391;52.504;13.438;2022-09-21T12:09:34;102167.00;;;29.40
71564;BMP180;59391;52.504;13.438;2022-09-21T12:14:54;102168.00;;;28.00
71564;BMP180;59391;52.504;13.438;2022-09-21T12:20:47;102171.00;;;26.80
71564;BMP180;59391;52.504;13.438;2022-09-21T12:24:01;102171.00;;;27.10
71564;BMP180;59391;52.504;13.438;2022-09-21T12:26:38;102166.00;;;26.70
71564;BMP180;59391;52.504;13.438;2022-09-21T12:29:34;102166.00;;;26.30
71564;BMP180;59391;52.504;13.438;2022-09-21T12:32:43;102173.00;;;25.90
71564;BMP180;59391;52.504;13.438;2022-09-21T12:35:22;102161.00;;;26.10
71564;BMP180;59391;52.504;13.438;2022-09-21T12:38:02;102167.00;;;26.60
71564;BMP180;59391;52.504;13.438;2022-09-21T12:40:42;102159.00;;;26.90
71564;BMP180;59391;52.504;13.438;2022-09-21T12:46:24;102157.00;;;26.80
71564;BMP180;59391;52.504;13.438;2022-09-21T12:48:50;102161.00;;;26.90
71564;BMP180;59391;52.504;13.438;2022-09-21T12:51:29;102158.00;;;26.70
71564;BMP180;59391;52.504;13.438;2022-09-21T12:54:04;102145.00;;;26.30
71564;BMP180;59391;52.504;13.438;2022-09-21T12:57:07;102155.00;;;26.10
71564;BMP180;59391;52.504;13.438;2022-09-21T13:02:49;102126.00;;;25.80
71564;BMP180;59391;52.504;13.438;2022-09-21T13:05:49;102140.00;;;25.60
71564;BMP180;59391;52.504;13.438;2022-09-21T13:08:29;102135.00;;;25.50
71564;BMP180;59391;52.504;13.438;2022-09-21T13:11:01;102137.00;;;25.30
71564;BMP180;59391;52.504;13.438;2022-09-21T13:15:55;102135.00;;;25.00
71564;BMP180;59391;52.504;13.438;2022-09-21T13:18:34;102140.00;;;24.90
71564;BMP180;59391;52.504;13.438;2022-09-21T13:21:18;102149.00;;;24.80
71564;BMP180;59391;52.504;13.438;2022-09-21T13:24:01;102145.00;;;24.60
71564;BMP180;59391;52.504;13.438;2022-09-21T13:26:39;102142.00;;;24.40
71564;BMP180;59391;52.504;13.438;2022-09-21T13:29:29;102137.00;;;24.20
71564;BMP180;59391;52.504;13.438;2022-09-21T13:34:51;102138.00;;;24.50
71564;BMP180;59391;52.504;13.438;2022-09-21T13:47:47;102139.00;;;25.40
71564;BMP180;59391;52.504;13.438;2022-09-21T13:50:41;102140.00;;;25.30
71564;BMP180;59391;52.504;13.438;2022-09-21T13:53:23;102121.00;;;25.20
71564;BMP180;59391;52.504;13.438;2022-09-21T13:55:59;102137.00;;;25.00
71564;BMP180;59391;52.504;13.438;2022-09-21T13:58:33;102112.00;;;25.00
71564;BMP180;59391;52.504;13.438;2022-09-21T14:01:50;102130.00;;;24.90
71564;BMP180;59391;52.504;13.438;2022-09-21T14:04:26;102114.00;;;24.60
71564;BMP180;59391;52.504;13.438;2022-09-21T14:06:56;102127.00;;;24.50
71564;BMP180;59391;52.504;13.438;2022-09-21T14:09:29;102131.00;;;24.40
71564;BMP180;59391;52.504;13.438;2022-09-21T14:12:03;102090.00;;;24.30
71564;BMP180;59391;52.504;13.438;2022-09-21T14:14:35;102117.00;;;24.30
71564;BMP180;59391;52.504;13.438;2022-09-21T14:17:35;102115.00;;;24.50
71564;BMP180;59391;52.504;13.438;2022-09-21T14:20:24;102106.00;;;24.80
71564;BMP180;59391;52.504;13.438;2022-09-21T14:25:54;102103.00;;;24.70
71564;BMP180;59391;52.504;13.438;2022-09-21T14:28:38;102100.00;;;24.50
71564;BMP180;59391;52.504;13.438;2022-09-21T14:31:42;102091.00;;;24.30
71564;BMP180;59391;52.504;13.438;2022-09-21T14:34:21;102089.00;;;24.10
71564;BMP180;59391;52.504;13.438;2022-09-21T14:36:51;102096.00;;;24.00
71564;BMP180;59391;52.504;13.438;2022-09-21T14:39:29;102104.00;;;23.90
71564;BMP180;59391;52.504;13.438;2022-09-21T14:42:02;102084.00;;;23.80
71564;BMP180;59391;52.504;13.438;2022-09-21T14:44:33;102093.00;;;23.80
71564;BMP180;59391;52.504;13.438;2022-09-21T14:50:30;102087.00;;;23.40
71564;BMP180;59391;52.504;13.438;2022-09-21T14:53:02;102089.00;;;23.30
71564;BMP180;59391;52.504;13.438;2022-09-21T15:01:37;102076.00;;;23.00
71564;BMP180;59391;52.504;13.438;2022-09-21T15:04:43;102087.00;;;22.90
71564;BMP180;59391;52.504;13.438;2022-09-21T15:07:35;102086.00;;;22.80
71564;BMP180;59391;52.504;13.438;2022-09-21T15:10:21;102085.00;;;22.80
71564;BMP180;59391;52.504;13.438;2022-09-21T15:16:47;102087.00;;;22.60
71564;BMP180;59391;52.504;13.438;2022-09-21T15:21:46;102077.00;;;22.50
71564;BMP180;59391;52.504;13.438;2022-09-21T15:24:29;102065.00;;;22.50
71564;BMP180;59391;52.504;13.438;2022-09-21T15:27:14;102074.00;;;22.40
71564;BMP180;59391;52.504;13.438;2022-09-21T15:29:54;102071.00;;;22.30
71564;BMP180;59391;52.504;13.438;2022-09-21T15:32:42;102066.00;;;22.30
71564;BMP180;59391;52.504;13.438;2022-09-21T15:37:41;102070.00;;;22.20
71564;BMP180;59391;52.504;13.438;2022-09-21T15:40:26;102060.00;;;22.10
71564;BMP180;59391;52.504;13.438;2022-09-21T15:45:59;102059.00;;;21.90
71564;BMP180;59391;52.504;13.438;2022-09-21T15:48:34;102075.00;;;21.90
71564;BMP180;59391;52.504;13.438;2022-09-21T15:54:07;102083.00;;;21.80
71564;BMP180;59391;52.504;13.438;2022-09-21T15:56:34;102073.00;;;21.80
71564;BMP180;59391;52.504;13.438;2022-09-21T15:59:05;102061.00;;;21.70
71564;BMP180;59391;52.504;13.438;2022-09-21T16:01:48;102058.00;;;21.70
71564;BMP180;59391;52.504;13.438;2022-09-21T16:04:18;102073.00;;;21.70
71564;BMP180;59391;52.504;13.438;2022-09-21T16:07:06;102059.00;;;21.70
71564;BMP180;59391;52.504;13.438;2022-09-21T16:09:41;102074.00;;;21.60
71564;BMP180;59391;52.504;13.438;2022-09-21T16:15:14;102089.00;;;21.50
71564;BMP180;59391;52.504;13.438;2022-09-21T16:18:00;102083.00;;;21.50
71564;BMP180;59391;52.504;13.438;2022-09-21T16:20:47;102091.00;;;21.50
71564;BMP180;59391;52.504;13.438;2022-09-21T16:23:20;102083.00;;;21.50
71564;BMP180;59391;52.504;13.438;2022-09-21T16:25:57;102086.00;;;21.50